SCTE 231502Z VRB01KT CAVOK 08/04 Q1030 NOSIG